createdAt,value
2022-07-27T00:01:14.118Z,8.73
2022-07-27T00:03:42.720Z,7.70
2022-07-27T00:06:10.377Z,10.38
2022-07-27T00:08:37.727Z,6.32
2022-07-27T00:11:05.492Z,8.13
2022-07-27T00:13:32.929Z,8.00
2022-07-27T00:16:00.249Z,8.98
2022-07-27T00:18:27.661Z,11.73
2022-07-27T00:20:55.361Z,7.97
2022-07-27T00:23:22.720Z,9.57
2022-07-27T00:25:50.190Z,8.93
2022-07-27T00:28:17.641Z,9.85
2022-07-27T00:30:44.887Z,5.75
2022-07-27T00:33:16.836Z,12.77
2022-07-27T00:35:45.717Z,6.10
2022-07-27T00:38:13.270Z,11.77
2022-07-27T00:40:40.787Z,8.20
2022-07-27T00:43:09.380Z,8.68
2022-07-27T00:45:36.789Z,8.48
2022-07-27T00:48:04.581Z,9.55
2022-07-27T00:50:32.029Z,7.28
2022-07-27T00:52:59.602Z,9.07
2022-07-27T00:55:27.744Z,7.80
2022-07-27T00:57:59.286Z,9.35
2022-07-27T01:00:29.535Z,9.85
2022-07-27T01:02:57.214Z,7.80
2022-07-27T01:05:35.952Z,8.07
2022-07-27T01:08:06.974Z,7.20
2022-07-27T01:10:35.477Z,9.13
2022-07-27T01:13:03.081Z,8.63
2022-07-27T01:15:31.586Z,11.52
2022-07-27T01:18:04.803Z,8.75
2022-07-27T01:20:33.856Z,13.93
2022-07-27T01:23:01.081Z,8.75
2022-07-27T01:25:28.391Z,12.27
2022-07-27T01:27:55.717Z,9.85
2022-07-27T01:30:30.562Z,10.73
2022-07-27T01:33:03.449Z,8.85
2022-07-27T01:35:31.582Z,9.48
2022-07-27T01:38:00.188Z,10.95
2022-07-27T01:40:27.704Z,10.85
2022-07-27T01:42:55.093Z,12.80
2022-07-27T01:45:22.630Z,9.45
2022-07-27T01:47:50.046Z,11.52
2022-07-27T01:50:17.352Z,9.07
2022-07-27T01:52:44.737Z,11.95
2022-07-27T01:55:13.006Z,11.75
2022-07-27T01:57:40.666Z,8.77
2022-07-27T02:00:12.054Z,12.02
2022-07-27T02:02:42.660Z,7.32
2022-07-27T02:05:14.053Z,8.60
2022-07-27T02:07:42.312Z,7.78
2022-07-27T02:10:10.896Z,6.57
2022-07-27T02:12:38.409Z,7.60
2022-07-27T02:15:19.302Z,9.30
2022-07-27T02:17:48.164Z,9.15
2022-07-27T02:20:19.667Z,13.48
2022-07-27T02:22:47.799Z,9.35
2022-07-27T02:25:17.713Z,12.35
2022-07-27T02:27:46.169Z,12.02
2022-07-27T02:30:14.279Z,9.77
2022-07-27T02:32:45.522Z,11.80
2022-07-27T02:35:18.831Z,10.80
2022-07-27T02:37:48.809Z,9.93
2022-07-27T02:40:18.038Z,13.20
2022-07-27T02:42:47.035Z,12.52
2022-07-27T02:45:15.760Z,15.80
2022-07-27T02:47:44.347Z,17.80
2022-07-27T02:50:12.377Z,16.55
2022-07-27T02:52:40.172Z,16.02
2022-07-27T02:55:09.008Z,19.42
2022-07-27T02:57:37.997Z,19.30
2022-07-27T03:00:15.046Z,18.40
2022-07-27T03:02:42.633Z,21.95
2022-07-27T03:05:11.083Z,18.25
2022-07-27T03:07:38.745Z,24.58
2022-07-27T03:10:07.106Z,25.75
2022-07-27T03:12:34.583Z,24.85
2022-07-27T03:15:01.870Z,26.50
2022-07-27T03:17:29.273Z,24.55
2022-07-27T03:19:56.554Z,25.83
2022-07-27T03:22:23.900Z,23.60
2022-07-27T03:24:51.272Z,29.92
2022-07-27T03:27:18.608Z,27.40
2022-07-27T03:29:45.939Z,29.55
2022-07-27T03:32:13.164Z,29.85
2022-07-27T03:34:40.525Z,25.65
2022-07-27T03:37:07.783Z,33.95
2022-07-27T03:39:35.066Z,35.47
2022-07-27T03:42:02.571Z,28.58
2022-07-27T03:44:30.151Z,30.83
2022-07-27T03:46:58.476Z,22.95
2022-07-27T03:49:26.009Z,33.33
2022-07-27T03:51:53.383Z,33.85
2022-07-27T03:54:20.852Z,27.05
2022-07-27T03:56:48.170Z,22.50
2022-07-27T03:59:15.799Z,19.55
2022-07-27T04:01:43.336Z,21.58
2022-07-27T04:04:11.065Z,16.33
2022-07-27T04:06:38.416Z,21.52
2022-07-27T04:09:08.789Z,18.92
2022-07-27T04:11:43.732Z,20.13
2022-07-27T04:14:19.267Z,14.95
2022-07-27T04:16:47.419Z,14.45
2022-07-27T04:19:15.456Z,10.93
2022-07-27T04:21:42.905Z,9.88
2022-07-27T04:24:10.987Z,10.98
2022-07-27T04:26:38.872Z,10.07
2022-07-27T04:29:06.231Z,10.82
2022-07-27T04:31:33.764Z,7.47
2022-07-27T04:34:01.131Z,12.10
2022-07-27T04:36:28.636Z,8.45
2022-07-27T04:38:56.004Z,16.77
2022-07-27T04:41:23.401Z,7.07
2022-07-27T04:43:59.083Z,6.50
2022-07-27T04:46:29.899Z,7.53
2022-07-27T04:48:57.686Z,5.72
2022-07-27T04:51:25.137Z,7.82
2022-07-27T04:53:58.143Z,5.38
2022-07-27T04:56:27.463Z,5.70
2022-07-27T04:58:56.074Z,5.88
2022-07-27T05:01:23.678Z,4.97
2022-07-27T05:03:51.815Z,6.95
2022-07-27T05:06:19.206Z,6.07
2022-07-27T05:08:46.480Z,5.20
2022-07-27T05:11:13.806Z,5.00
2022-07-27T05:13:41.276Z,5.78
2022-07-27T05:16:12.324Z,5.43
2022-07-27T05:18:40.375Z,6.47
2022-07-27T05:21:08.450Z,5.20
2022-07-27T05:23:36.291Z,5.32
2022-07-27T05:26:03.709Z,9.50
2022-07-27T05:28:31.453Z,6.97
2022-07-27T05:30:58.979Z,8.23
2022-07-27T05:33:26.238Z,8.55
2022-07-27T05:35:55.122Z,7.22
2022-07-27T05:38:22.571Z,10.60
2022-07-27T05:40:49.992Z,7.75
2022-07-27T05:43:17.429Z,8.18
2022-07-27T05:45:44.954Z,8.23
2022-07-27T05:48:12.383Z,8.55
2022-07-27T05:50:39.885Z,10.60
2022-07-27T05:53:07.144Z,9.95
2022-07-27T05:55:34.667Z,12.00
2022-07-27T05:58:02.082Z,9.70
2022-07-27T06:00:29.473Z,16.95
2022-07-27T06:02:56.891Z,9.50
2022-07-27T06:05:24.441Z,11.00
2022-07-27T06:08:01.522Z,12.60
2022-07-27T06:10:32.361Z,12.75
2022-07-27T06:13:04.421Z,7.82
2022-07-27T06:15:32.362Z,11.60
2022-07-27T06:17:59.767Z,7.53
2022-07-27T06:20:27.714Z,7.85
2022-07-27T06:23:00.602Z,16.60
2022-07-27T06:25:34.439Z,8.45
2022-07-27T06:28:05.574Z,14.27
2022-07-27T06:30:33.374Z,7.55
2022-07-27T06:33:04.376Z,7.78
2022-07-27T06:35:32.830Z,8.85
2022-07-27T06:38:01.001Z,15.27
2022-07-27T06:40:29.935Z,8.45
2022-07-27T06:42:58.454Z,7.32
2022-07-27T06:45:26.036Z,6.25
2022-07-27T06:47:53.532Z,7.50
2022-07-27T06:50:21.655Z,9.25
2022-07-27T06:52:49.756Z,10.73
2022-07-27T06:55:17.818Z,9.63
2022-07-27T06:57:46.583Z,18.73
2022-07-27T07:00:15.270Z,10.80
2022-07-27T07:02:58.876Z,9.00
2022-07-27T07:05:27.139Z,11.73
2022-07-27T07:07:54.551Z,7.30
2022-07-27T07:10:23.735Z,13.68
2022-07-27T07:12:55.786Z,6.78
2022-07-27T07:15:26.462Z,7.10
2022-07-27T07:17:54.476Z,7.30
2022-07-27T07:20:22.512Z,7.45
2022-07-27T07:22:50.404Z,5.30
2022-07-27T07:25:18.040Z,6.50
2022-07-27T07:27:45.377Z,7.95
2022-07-27T07:30:13.248Z,5.93
2022-07-27T07:32:40.672Z,7.88
2022-07-27T07:35:09.132Z,5.50
2022-07-27T07:37:36.591Z,10.35
2022-07-27T07:40:39.937Z,9.55
2022-07-27T07:43:02.829Z,5.10
2022-07-27T07:45:34.883Z,10.60
2022-07-27T07:48:02.284Z,8.07
2022-07-27T07:50:29.546Z,7.07
2022-07-27T07:52:57.071Z,8.20
2022-07-27T07:55:28.582Z,7.68
2022-07-27T07:57:57.840Z,5.35
2022-07-27T08:00:25.291Z,12.32
2022-07-27T08:02:56.052Z,5.35
2022-07-27T08:05:24.770Z,8.50
2022-07-27T08:07:52.688Z,7.50
2022-07-27T08:10:22.340Z,10.52
2022-07-27T08:12:55.147Z,6.95
2022-07-27T08:15:35.413Z,6.65
2022-07-27T08:18:07.755Z,6.50
2022-07-27T08:20:35.549Z,8.27
2022-07-27T08:23:03.476Z,6.57
2022-07-27T08:25:31.858Z,5.75
2022-07-27T08:27:59.714Z,6.72
2022-07-27T08:30:27.238Z,7.75
2022-07-27T08:33:03.619Z,4.53
2022-07-27T08:35:33.675Z,4.10
2022-07-27T08:38:03.144Z,7.93
2022-07-27T08:43:21.887Z,3.63
2022-07-27T08:45:58.100Z,7.75
2022-07-27T08:48:27.445Z,4.38
2022-07-27T08:53:23.697Z,7.05
2022-07-27T08:55:51.560Z,5.90
2022-07-27T08:58:19.113Z,5.32
2022-07-27T09:00:50.271Z,5.32
2022-07-27T09:03:22.794Z,6.10
2022-07-27T09:05:56.214Z,5.72
2022-07-27T09:08:30.366Z,6.70
2022-07-27T09:11:00.435Z,4.63
2022-07-27T09:13:35.162Z,3.47
2022-07-27T09:16:18.487Z,2.92
2022-07-27T09:18:48.003Z,2.97
2022-07-27T09:21:22.597Z,7.22
2022-07-27T09:24:18.047Z,4.55
2022-07-27T09:27:03.904Z,6.30
2022-07-27T09:29:36.156Z,5.78
2022-07-27T09:32:16.885Z,4.40
2022-07-27T09:34:45.239Z,3.72
2022-07-27T09:37:23.100Z,5.97
2022-07-27T09:39:50.518Z,3.60
2022-07-27T09:42:59.312Z,4.47
2022-07-27T09:45:34.110Z,3.63
2022-07-27T09:48:17.064Z,3.80
2022-07-27T09:51:02.663Z,7.78
2022-07-27T09:53:44.126Z,6.25
2022-07-27T09:56:16.387Z,4.85
2022-07-27T09:58:46.642Z,5.18
2022-07-27T10:01:26.189Z,4.88
2022-07-27T10:03:56.787Z,11.75
2022-07-27T10:06:26.084Z,6.03
2022-07-27T10:08:55.918Z,5.38
2022-07-27T10:11:25.433Z,5.28
2022-07-27T10:13:55.451Z,3.80
2022-07-27T10:16:29.064Z,4.95
2022-07-27T10:19:21.849Z,7.10
2022-07-27T10:21:50.134Z,5.13
2022-07-27T10:24:43.731Z,7.67
2022-07-27T10:27:47.338Z,5.50
2022-07-27T10:30:17.679Z,5.68
2022-07-27T10:32:52.474Z,7.95
2022-07-27T10:35:46.553Z,4.68
2022-07-27T10:38:18.353Z,5.25
2022-07-27T10:40:45.961Z,4.72
2022-07-27T10:43:22.932Z,4.07
2022-07-27T10:46:01.413Z,4.55
2022-07-27T10:48:44.222Z,3.95
2022-07-27T10:51:16.788Z,4.95
2022-07-27T10:56:50.933Z,4.90
2022-07-27T11:00:08.002Z,8.07
2022-07-27T11:02:42.789Z,5.72
2022-07-27T11:08:35.744Z,7.43
2022-07-27T11:10:49.911Z,8.70
2022-07-27T11:13:24.043Z,6.15
2022-07-27T11:16:23.516Z,4.75
2022-07-27T11:19:01.474Z,6.93
2022-07-27T11:21:35.959Z,3.53
2022-07-27T11:24:17.526Z,4.78
2022-07-27T11:26:51.708Z,5.60
2022-07-27T11:29:25.049Z,5.38
2022-07-27T11:31:57.771Z,6.28
2022-07-27T11:34:34.643Z,4.15
2022-07-27T11:37:11.909Z,5.03
2022-07-27T11:40:00.267Z,3.80
2022-07-27T11:42:40.376Z,4.07
2022-07-27T11:45:08.410Z,3.20
2022-07-27T11:47:37.121Z,3.78
2022-07-27T11:50:07.838Z,3.50
2022-07-27T11:52:35.342Z,4.47
2022-07-27T11:55:02.885Z,5.45
2022-07-27T11:57:34.296Z,3.78
2022-07-27T12:00:02.276Z,6.68
2022-07-27T12:02:50.043Z,4.05
2022-07-27T12:05:17.596Z,4.25
2022-07-27T12:07:45.046Z,4.68
2022-07-27T12:10:13.488Z,4.72
2022-07-27T12:12:41.450Z,4.28
2022-07-27T12:15:45.999Z,4.30
2022-07-27T12:18:08.021Z,6.97
2022-07-27T12:20:37.387Z,6.97
2022-07-27T12:23:08.061Z,3.40
2022-07-27T12:25:36.637Z,5.20
2022-07-27T12:28:14.494Z,8.13
2022-07-27T12:30:52.815Z,7.38
2022-07-27T12:33:37.924Z,6.63
2022-07-27T12:36:08.172Z,5.50
2022-07-27T12:38:51.034Z,4.53
2022-07-27T12:41:38.251Z,6.90
2022-07-27T12:44:17.117Z,6.45
2022-07-27T12:47:27.320Z,5.40
2022-07-27T12:50:17.161Z,6.00
2022-07-27T12:52:51.248Z,12.43
2022-07-27T12:55:21.308Z,8.15
2022-07-27T12:57:56.059Z,6.70
2022-07-27T13:00:33.563Z,7.93
2022-07-27T13:03:04.085Z,4.78
2022-07-27T13:05:32.976Z,6.25
2022-07-27T13:08:03.362Z,7.53
2022-07-27T13:10:31.384Z,5.65
2022-07-27T13:12:59.262Z,14.02
2022-07-27T13:15:27.227Z,7.72
2022-07-27T13:17:54.597Z,7.97
2022-07-27T13:20:22.850Z,8.75
2022-07-27T13:22:50.511Z,11.10
2022-07-27T13:25:18.084Z,7.07
2022-07-27T13:27:50.041Z,6.90
2022-07-27T13:30:18.745Z,6.85
2022-07-27T13:32:47.137Z,5.78
2022-07-27T13:35:16.866Z,6.35
2022-07-27T13:40:13.382Z,8.32
2022-07-27T13:42:40.734Z,6.57
2022-07-27T13:45:11.387Z,6.25
2022-07-27T13:47:41.325Z,5.50
2022-07-27T13:50:17.782Z,7.25
2022-07-27T13:52:48.525Z,8.52
2022-07-27T13:55:17.754Z,6.88
2022-07-27T13:57:47.060Z,10.35
2022-07-27T14:00:16.234Z,6.80
2022-07-27T14:02:44.066Z,11.47
2022-07-27T14:05:14.561Z,9.67
2022-07-27T14:07:44.307Z,7.43
2022-07-27T14:10:31.218Z,8.05
2022-07-27T14:13:09.015Z,9.65
2022-07-27T14:15:50.283Z,7.47
2022-07-27T14:18:22.372Z,7.75
2022-07-27T14:20:49.738Z,9.15
2022-07-27T14:23:17.008Z,8.75
2022-07-27T14:25:44.489Z,8.52
2022-07-27T14:28:11.779Z,6.50
2022-07-27T14:30:39.119Z,6.82
2022-07-27T14:33:06.367Z,7.68
2022-07-27T14:35:39.917Z,6.03
2022-07-27T14:38:08.397Z,6.15
2022-07-27T14:40:35.885Z,6.85
2022-07-27T14:43:03.503Z,7.03
2022-07-27T14:45:44.631Z,7.18
2022-07-27T14:48:28.184Z,6.72
2022-07-27T14:51:04.830Z,8.30
2022-07-27T14:53:32.080Z,7.65
2022-07-27T14:55:59.416Z,7.00
2022-07-27T14:58:27.397Z,6.03
2022-07-27T15:00:55.083Z,6.22
2022-07-27T15:03:22.558Z,8.95
2022-07-27T15:05:51.042Z,7.18
2022-07-27T15:08:21.924Z,8.55
2022-07-27T15:10:49.397Z,5.80
2022-07-27T15:13:17.973Z,5.60
2022-07-27T15:15:48.498Z,4.93
2022-07-27T15:18:18.958Z,6.47
2022-07-27T15:20:49.782Z,6.25
2022-07-27T15:23:17.447Z,5.68
2022-07-27T15:25:44.909Z,9.52
2022-07-27T15:28:12.397Z,8.63
2022-07-27T15:30:39.905Z,7.15
2022-07-27T15:33:07.742Z,7.22
2022-07-27T15:35:35.725Z,7.95
2022-07-27T15:38:04.010Z,5.55
2022-07-27T15:40:37.500Z,7.32
2022-07-27T15:43:14.674Z,5.65
2022-07-27T15:45:45.692Z,7.68
2022-07-27T15:48:14.114Z,6.47
2022-07-27T15:50:45.023Z,8.48
2022-07-27T15:53:14.254Z,7.88
2022-07-27T15:55:43.908Z,7.03
2022-07-27T15:58:13.572Z,5.85
2022-07-27T16:00:41.699Z,7.03
2022-07-27T16:03:12.131Z,7.07
2022-07-27T16:05:42.021Z,7.85
2022-07-27T16:08:10.468Z,7.03
2022-07-27T16:10:39.868Z,9.23
2022-07-27T16:13:09.036Z,6.13
2022-07-27T16:15:57.741Z,8.65
2022-07-27T16:18:26.549Z,7.18
2022-07-27T16:20:54.236Z,7.70
2022-07-27T16:23:22.571Z,8.60
2022-07-27T16:26:10.038Z,6.95
2022-07-27T16:28:41.234Z,5.93
2022-07-27T16:31:11.554Z,8.25
2022-07-27T16:33:40.897Z,9.38
2022-07-27T16:36:09.749Z,7.38
2022-07-27T16:38:39.290Z,9.52
2022-07-27T16:43:47.078Z,6.60
2022-07-27T16:46:14.701Z,7.47
2022-07-27T16:48:43.353Z,8.35
2022-07-27T16:51:15.540Z,11.20
2022-07-27T16:53:45.979Z,5.28
2022-07-27T16:56:14.747Z,8.15
2022-07-27T16:58:42.264Z,11.45
2022-07-27T17:01:09.942Z,6.55
2022-07-27T17:03:49.770Z,5.80
2022-07-27T17:06:18.935Z,6.53
2022-07-27T17:08:46.326Z,8.15
2022-07-27T17:11:14.025Z,9.70
2022-07-27T17:13:44.545Z,5.32
2022-07-27T17:16:17.180Z,8.60
2022-07-27T17:18:44.757Z,9.25
2022-07-27T17:21:13.244Z,10.35
2022-07-27T17:23:42.421Z,7.53
2022-07-27T17:26:13.913Z,8.02
2022-07-27T17:28:41.741Z,9.40
2022-07-27T17:31:12.432Z,7.32
2022-07-27T17:33:41.571Z,10.00
2022-07-27T17:36:15.125Z,9.27
2022-07-27T17:38:47.096Z,9.85
2022-07-27T17:41:19.346Z,11.52
2022-07-27T17:43:52.281Z,13.85
2022-07-27T17:46:19.746Z,8.43
2022-07-27T17:48:47.290Z,10.20
2022-07-27T17:51:14.830Z,14.93
2022-07-27T17:53:42.219Z,7.80
2022-07-27T17:56:11.053Z,12.30
2022-07-27T17:58:39.127Z,11.95
2022-07-27T18:01:07.230Z,11.77
2022-07-27T18:03:35.158Z,8.82
2022-07-27T18:06:03.123Z,7.20
2022-07-27T18:08:30.505Z,7.95
2022-07-27T18:10:57.914Z,6.47
2022-07-27T18:13:39.272Z,8.02
2022-07-27T18:16:12.020Z,10.25
2022-07-27T18:18:41.839Z,10.13
2022-07-27T18:21:10.697Z,8.35
2022-07-27T18:23:38.662Z,6.88
2022-07-27T18:26:06.534Z,6.82
2022-07-27T18:28:39.294Z,5.10
2022-07-27T18:31:08.445Z,6.45
2022-07-27T18:33:36.504Z,6.20
2022-07-27T18:36:05.298Z,6.50
2022-07-27T18:38:32.664Z,6.13
2022-07-27T18:41:00.167Z,16.67
2022-07-27T18:43:27.641Z,5.22
2022-07-27T18:45:55.036Z,7.15
2022-07-27T18:48:22.349Z,4.50
2022-07-27T18:50:49.681Z,5.55
2022-07-27T18:53:17.077Z,6.63
2022-07-27T18:55:45.089Z,4.35
2022-07-27T18:58:12.551Z,5.55
2022-07-27T19:00:40.038Z,7.93
2022-07-27T19:03:07.560Z,3.88
2022-07-27T19:05:41.692Z,4.32
2022-07-27T19:08:13.306Z,5.22
2022-07-27T19:10:45.104Z,3.35
2022-07-27T19:13:14.177Z,4.55
2022-07-27T19:15:41.607Z,4.55
2022-07-27T19:18:09.411Z,4.25
2022-07-27T19:20:37.806Z,3.35
2022-07-27T19:23:08.452Z,4.78
2022-07-27T19:25:36.094Z,5.43
2022-07-27T19:28:04.380Z,5.90
2022-07-27T19:30:32.055Z,5.28
2022-07-27T19:32:59.815Z,4.45
2022-07-27T19:35:27.359Z,4.80
2022-07-27T19:37:54.691Z,7.82
2022-07-27T19:43:10.172Z,6.07
2022-07-27T19:45:38.172Z,9.05
2022-07-27T19:48:06.791Z,3.88
2022-07-27T19:50:34.821Z,4.50
2022-07-27T19:53:03.208Z,5.22
2022-07-27T19:55:30.534Z,4.53
2022-07-27T19:57:58.026Z,6.63
2022-07-27T20:00:25.838Z,5.22
2022-07-27T20:02:53.566Z,4.25
2022-07-27T20:05:20.995Z,6.10
2022-07-27T20:07:48.418Z,5.45
2022-07-27T20:10:16.268Z,5.20
2022-07-27T20:12:43.742Z,5.25
2022-07-27T20:15:11.549Z,4.03
2022-07-27T20:17:40.611Z,7.55
2022-07-27T20:20:09.916Z,5.55
2022-07-27T20:22:39.312Z,5.25
2022-07-27T20:25:10.061Z,7.80
2022-07-27T20:27:38.618Z,7.63
2022-07-27T20:30:06.977Z,7.63
2022-07-27T20:32:35.054Z,7.75
2022-07-27T20:35:03.659Z,4.57
2022-07-27T20:37:31.009Z,8.35
2022-07-27T20:39:58.344Z,8.05
2022-07-27T20:42:25.829Z,7.85
2022-07-27T20:44:53.545Z,8.50
2022-07-27T20:47:20.955Z,6.88
2022-07-27T20:49:48.450Z,6.40
2022-07-27T20:52:16.299Z,9.70
2022-07-27T20:54:43.696Z,7.53
2022-07-27T20:57:11.081Z,7.30
2022-07-27T20:59:38.544Z,8.00
2022-07-27T21:02:07.744Z,6.43
2022-07-27T21:04:35.663Z,8.45
2022-07-27T21:07:03.081Z,11.70
2022-07-27T21:09:31.926Z,4.70
2022-07-27T21:11:59.567Z,9.13
2022-07-27T21:14:26.842Z,5.93
2022-07-27T21:16:54.371Z,7.80
2022-07-27T21:19:22.715Z,6.93
2022-07-27T21:21:50.175Z,8.85
2022-07-27T21:24:18.802Z,9.50
2022-07-27T21:26:50.470Z,5.78
2022-07-27T21:29:19.526Z,3.83
2022-07-27T21:31:49.564Z,6.32
2022-07-27T21:34:20.580Z,10.45
2022-07-27T21:39:18.150Z,6.03
2022-07-27T21:41:45.935Z,8.47
2022-07-27T21:44:14.423Z,5.53
2022-07-27T21:46:42.691Z,6.93
2022-07-27T21:49:10.629Z,3.40
2022-07-27T21:51:38.170Z,4.97
2022-07-27T21:54:06.182Z,3.17
2022-07-27T21:56:41.110Z,3.75
2022-07-27T21:59:09.268Z,3.47
2022-07-27T22:01:36.707Z,6.25
2022-07-27T22:04:04.195Z,9.30
2022-07-27T22:06:31.746Z,3.00
2022-07-27T22:08:59.097Z,9.80
2022-07-27T22:11:26.488Z,4.07
2022-07-27T22:13:53.875Z,8.20
2022-07-27T22:16:21.385Z,6.15
2022-07-27T22:18:48.920Z,9.15
2022-07-27T22:21:16.572Z,7.88
2022-07-27T22:23:44.995Z,6.90
2022-07-27T22:26:12.332Z,9.80
2022-07-27T22:28:40.096Z,5.72
2022-07-27T22:31:21.236Z,6.45
2022-07-27T22:33:49.357Z,3.50
2022-07-27T22:36:16.645Z,7.80
2022-07-27T22:38:44.164Z,5.82
2022-07-27T22:41:11.695Z,9.38
2022-07-27T22:43:39.020Z,13.30
2022-07-27T22:46:06.631Z,4.10
2022-07-27T22:48:33.923Z,5.95
2022-07-27T22:51:01.286Z,7.20
2022-07-27T22:53:28.760Z,5.95
2022-07-27T22:55:56.340Z,3.45
2022-07-27T22:58:23.669Z,7.70
2022-07-27T23:00:53.600Z,5.30
2022-07-27T23:03:24.858Z,4.38
2022-07-27T23:05:52.098Z,11.48
2022-07-27T23:08:19.407Z,7.68
2022-07-27T23:10:46.930Z,6.07
2022-07-27T23:13:20.088Z,7.57
2022-07-27T23:15:48.176Z,3.58
2022-07-27T23:18:16.987Z,4.60
2022-07-27T23:20:45.112Z,4.05
2022-07-27T23:23:16.352Z,4.50
2022-07-27T23:25:47.005Z,3.35
2022-07-27T23:28:15.950Z,8.18
2022-07-27T23:30:43.420Z,3.08
2022-07-27T23:33:11.192Z,6.03
2022-07-27T23:35:38.658Z,5.03
2022-07-27T23:38:05.956Z,4.93
2022-07-27T23:40:33.263Z,6.95
2022-07-27T23:43:00.586Z,3.05
2022-07-27T23:45:28.291Z,3.15
2022-07-27T23:47:55.926Z,6.20
2022-07-27T23:50:23.314Z,7.00
2022-07-27T23:52:50.764Z,6.28
2022-07-27T23:55:18.098Z,2.75
2022-07-27T23:57:45.528Z,4.97
